createdAt,value
2019-04-07T00:00:36.153Z,3.52
2019-04-07T00:03:24.993Z,3.20
2019-04-07T00:06:14.878Z,3.62
2019-04-07T00:09:06.035Z,4.12
2019-04-07T00:11:55.224Z,3.47
2019-04-07T00:14:44.732Z,3.60
2019-04-07T00:17:33.737Z,3.77
2019-04-07T00:20:23.635Z,3.42
2019-04-07T00:23:13.131Z,4.40
2019-04-07T00:26:02.615Z,4.03
2019-04-07T00:28:51.183Z,3.50
2019-04-07T00:31:39.884Z,3.80
2019-04-07T00:34:28.022Z,3.30
2019-04-07T00:37:16.981Z,5.40
2019-04-07T00:40:08.631Z,3.45
2019-04-07T00:42:58.212Z,3.42
2019-04-07T00:45:48.114Z,3.52
2019-04-07T00:48:36.940Z,3.87
2019-04-07T00:51:25.774Z,3.67
2019-04-07T00:54:14.110Z,6.00
2019-04-07T00:57:03.006Z,3.90
2019-04-07T00:59:51.834Z,4.20
2019-04-07T01:02:40.810Z,4.30
2019-04-07T01:05:38.152Z,3.90
2019-04-07T01:08:20.853Z,4.65
2019-04-07T01:11:09.829Z,4.40
2019-04-07T01:13:58.238Z,4.73
2019-04-07T01:16:47.223Z,4.60
2019-04-07T01:19:36.610Z,4.10
2019-04-07T01:22:25.799Z,4.37
2019-04-07T01:25:14.887Z,4.27
2019-04-07T01:28:04.452Z,4.50
2019-04-07T01:30:53.359Z,4.30
2019-04-07T01:33:42.225Z,4.87
2019-04-07T01:36:32.622Z,4.80
2019-04-07T01:39:22.035Z,4.62
2019-04-07T01:42:25.630Z,4.35
2019-04-07T01:45:39.753Z,4.42
2019-04-07T01:48:46.846Z,4.03
2019-04-07T01:51:43.043Z,5.15
2019-04-07T01:54:50.052Z,4.20
2019-04-07T01:57:47.711Z,4.40
2019-04-07T02:01:08.249Z,4.10
2019-04-07T02:04:06.027Z,4.22
2019-04-07T02:07:20.275Z,4.50
2019-04-07T02:10:31.864Z,4.43
2019-04-07T02:13:43.010Z,4.30
2019-04-07T02:16:47.757Z,4.58
2019-04-07T02:19:46.195Z,4.50
2019-04-07T02:23:00.831Z,4.42
2019-04-07T02:26:04.761Z,4.83
2019-04-07T02:29:02.686Z,4.62
2019-04-07T02:31:58.606Z,4.30
2019-04-07T02:35:06.040Z,4.20
2019-04-07T02:38:03.234Z,5.80
2019-04-07T02:41:09.019Z,5.17
2019-04-07T02:44:23.922Z,4.42
2019-04-07T02:47:31.279Z,5.70
2019-04-07T02:50:36.760Z,5.20
2019-04-07T02:53:51.039Z,5.85
2019-04-07T02:57:08.417Z,4.40
2019-04-07T03:00:08.682Z,4.45
2019-04-07T03:03:07.631Z,4.60
2019-04-07T03:06:37.272Z,5.60
2019-04-07T03:09:31.150Z,5.78
2019-04-07T03:12:34.811Z,4.70
2019-04-07T03:15:54.895Z,5.22
2019-04-07T03:18:52.640Z,5.20
2019-04-07T03:21:54.351Z,4.92
2019-04-07T03:25:00.719Z,5.20
2019-04-07T03:28:08.792Z,5.20
2019-04-07T03:31:14.769Z,6.10
2019-04-07T03:34:35.790Z,6.40
2019-04-07T03:37:43.022Z,6.33
2019-04-07T03:40:44.562Z,6.40
2019-04-07T03:43:41.792Z,5.97
2019-04-07T03:46:59.914Z,5.60
2019-04-07T03:49:55.534Z,5.25
2019-04-07T03:52:49.568Z,9.00
2019-04-07T03:56:13.474Z,5.22
2019-04-07T03:59:21.440Z,5.95
2019-04-07T04:02:26.341Z,6.20
2019-04-07T04:05:35.933Z,5.45
2019-04-07T04:08:53.018Z,5.25
2019-04-07T04:11:47.693Z,6.60
2019-04-07T04:14:45.547Z,6.08
2019-04-07T04:17:34.805Z,7.10
2019-04-07T04:20:24.099Z,5.30
2019-04-07T04:23:14.440Z,5.60
2019-04-07T04:26:04.400Z,8.53
2019-04-07T04:28:52.692Z,9.85
2019-04-07T04:31:40.817Z,6.60
2019-04-07T04:34:28.951Z,5.90
2019-04-07T04:37:33.271Z,5.92
2019-04-07T04:40:09.324Z,5.90
2019-04-07T04:42:58.340Z,6.10
2019-04-07T04:45:48.304Z,6.40
2019-04-07T04:48:37.489Z,5.80
2019-04-07T04:51:26.195Z,6.67
2019-04-07T04:54:15.065Z,5.80
2019-04-07T04:57:06.439Z,8.15
2019-04-07T04:59:54.038Z,5.50
2019-04-07T05:02:43.526Z,5.50
2019-04-07T05:05:33.418Z,6.63
2019-04-07T05:08:21.806Z,6.60
2019-04-07T05:11:10.849Z,5.67
2019-04-07T05:14:00.292Z,5.37
2019-04-07T05:16:48.447Z,6.85
2019-04-07T05:19:37.378Z,5.08
2019-04-07T05:22:25.791Z,6.70
2019-04-07T05:25:14.573Z,5.50
2019-04-07T05:28:03.711Z,5.80
2019-04-07T05:30:51.880Z,5.80
2019-04-07T05:33:41.124Z,6.00
2019-04-07T05:36:30.353Z,6.50
2019-04-07T05:39:19.067Z,6.33
2019-04-07T05:42:08.037Z,7.10
2019-04-07T05:44:56.119Z,6.20
2019-04-07T05:47:48.645Z,6.70
2019-04-07T05:50:34.992Z,6.73
2019-04-07T05:53:23.504Z,7.20
2019-04-07T05:56:12.267Z,6.87
2019-04-07T05:59:01.719Z,6.90
2019-04-07T06:01:52.501Z,6.20
2019-04-07T06:04:40.412Z,6.70
2019-04-07T06:07:31.791Z,8.30
2019-04-07T06:10:22.325Z,7.65
2019-04-07T06:13:12.922Z,7.83
2019-04-07T06:16:00.049Z,7.12
2019-04-07T06:18:48.455Z,6.80
2019-04-07T06:21:37.830Z,7.10
2019-04-07T06:24:31.625Z,6.40
2019-04-07T06:27:17.850Z,6.75
2019-04-07T06:30:08.475Z,6.75
2019-04-07T06:32:56.986Z,7.40
2019-04-07T06:35:47.314Z,7.42
2019-04-07T06:38:41.536Z,7.30
2019-04-07T06:41:30.068Z,7.20
2019-04-07T06:44:19.802Z,6.90
2019-04-07T06:47:11.949Z,7.10
2019-04-07T06:50:20.599Z,6.53
2019-04-07T06:53:24.565Z,7.30
2019-04-07T06:56:25.976Z,7.27
2019-04-07T06:59:22.945Z,7.45
2019-04-07T07:02:31.661Z,7.20
2019-04-07T07:05:36.242Z,7.25
2019-04-07T07:08:45.765Z,7.13
2019-04-07T07:11:53.998Z,7.83
2019-04-07T07:14:53.852Z,8.15
2019-04-07T07:17:50.822Z,8.93
2019-04-07T07:21:05.018Z,7.83
2019-04-07T07:23:53.754Z,8.58
2019-04-07T07:26:42.888Z,8.63
2019-04-07T07:29:33.726Z,7.87
2019-04-07T07:32:22.761Z,7.80
2019-04-07T07:35:15.029Z,8.10
2019-04-07T07:38:02.774Z,7.95
2019-04-07T07:40:54.351Z,7.80
2019-04-07T07:43:43.555Z,8.20
2019-04-07T07:46:32.378Z,7.75
2019-04-07T07:49:21.430Z,7.78
2019-04-07T07:52:11.634Z,7.28
2019-04-07T07:55:02.550Z,8.50
2019-04-07T07:57:54.153Z,7.90
2019-04-07T08:00:43.371Z,7.67
2019-04-07T08:03:32.519Z,8.30
2019-04-07T08:06:21.568Z,7.92
2019-04-07T08:09:14.932Z,7.83
2019-04-07T08:12:02.446Z,7.90
2019-04-07T08:14:55.077Z,7.85
2019-04-07T08:17:41.050Z,8.45
2019-04-07T08:20:30.636Z,9.48
2019-04-07T08:23:19.823Z,9.60
2019-04-07T08:26:11.721Z,10.38
2019-04-07T08:29:03.248Z,10.78
2019-04-07T08:31:54.836Z,12.35
2019-04-07T08:34:41.542Z,11.65
2019-04-07T08:37:30.890Z,14.15
2019-04-07T08:40:19.934Z,15.98
2019-04-07T08:43:08.930Z,16.30
2019-04-07T08:45:58.044Z,16.65
2019-04-07T08:48:49.710Z,16.73
2019-04-07T08:51:37.238Z,19.15
2019-04-07T08:54:26.599Z,18.30
2019-04-07T08:57:16.317Z,18.30
2019-04-07T09:00:13.163Z,17.57
2019-04-07T09:03:03.703Z,18.90
2019-04-07T09:05:48.557Z,20.33
2019-04-07T09:08:39.055Z,21.10
2019-04-07T09:11:28.214Z,21.85
2019-04-07T09:14:17.620Z,21.37
2019-04-07T09:17:44.508Z,23.00
2019-04-07T09:20:44.927Z,21.82
2019-04-07T09:23:58.130Z,23.77
2019-04-07T09:26:55.699Z,23.98
2019-04-07T09:30:02.469Z,24.05
2019-04-07T09:33:00.272Z,23.20
2019-04-07T09:36:10.181Z,21.75
2019-04-07T09:39:52.903Z,20.70
2019-04-07T09:42:57.380Z,22.80
2019-04-07T09:46:03.546Z,22.40
2019-04-07T09:49:21.273Z,22.30
2019-04-07T09:52:19.052Z,21.80
2019-04-07T09:55:27.657Z,25.05
2019-04-07T09:58:30.881Z,27.95
2019-04-07T10:01:45.022Z,31.05
2019-04-07T10:04:56.372Z,28.62
2019-04-07T10:08:05.618Z,27.03
2019-04-07T10:11:22.879Z,26.70
2019-04-07T10:14:29.600Z,27.02
2019-04-07T10:17:45.204Z,28.90
2019-04-07T10:20:51.743Z,28.15
2019-04-07T10:23:59.495Z,27.60
2019-04-07T10:27:10.857Z,30.12
2019-04-07T10:30:17.872Z,30.08
2019-04-07T10:33:18.045Z,30.97
2019-04-07T10:36:29.324Z,31.40
2019-04-07T10:39:40.042Z,31.00
2019-04-07T10:42:55.345Z,31.97
2019-04-07T10:45:54.886Z,30.52
2019-04-07T10:52:07.147Z,31.00
2019-04-07T10:55:09.804Z,30.97
2019-04-07T10:58:09.075Z,32.03
2019-04-07T11:01:15.787Z,29.70
2019-04-07T11:04:23.005Z,32.40
2019-04-07T11:07:29.695Z,32.25
2019-04-07T11:10:39.383Z,31.25
2019-04-07T11:13:51.625Z,33.55
2019-04-07T11:17:06.419Z,33.13
2019-04-07T11:20:10.418Z,32.93
2019-04-07T11:23:08.495Z,34.65
2019-04-07T11:26:11.274Z,33.35
2019-04-07T11:29:08.515Z,34.60
2019-04-07T11:32:04.070Z,34.60
2019-04-07T11:35:18.247Z,33.38
2019-04-07T11:38:35.420Z,33.25
2019-04-07T11:41:39.182Z,33.28
2019-04-07T11:44:35.651Z,33.75
2019-04-07T11:47:41.620Z,35.20
2019-04-07T11:50:40.712Z,34.78
2019-04-07T11:53:44.491Z,34.83
2019-04-07T11:56:41.711Z,35.33
2019-04-07T12:00:08.647Z,35.30
2019-04-07T12:03:28.982Z,33.50
2019-04-07T12:06:48.833Z,34.27
2019-04-07T12:10:01.630Z,33.70
2019-04-07T12:13:09.041Z,33.08
2019-04-07T12:17:00.202Z,34.50
2019-04-07T12:20:08.232Z,33.42
2019-04-07T12:23:06.450Z,33.67
2019-04-07T12:26:05.202Z,33.73
2019-04-07T12:29:22.248Z,32.53
2019-04-07T12:32:28.154Z,33.90
2019-04-07T12:35:39.379Z,31.57
2019-04-07T12:38:47.783Z,32.30
2019-04-07T12:41:57.239Z,30.97
2019-04-07T12:44:53.897Z,30.80
2019-04-07T12:47:57.121Z,29.67
2019-04-07T12:51:19.848Z,29.23
2019-04-07T12:54:15.708Z,28.12
2019-04-07T12:57:23.006Z,28.62
2019-04-07T13:00:24.983Z,28.10
2019-04-07T13:03:42.501Z,27.55
2019-04-07T13:06:46.928Z,26.93
2019-04-07T13:10:07.398Z,27.10
2019-04-07T13:13:05.795Z,25.60
2019-04-07T13:16:29.519Z,25.87
2019-04-07T13:19:28.694Z,23.83
2019-04-07T13:22:42.721Z,22.50
2019-04-07T13:25:38.574Z,20.50
2019-04-07T13:28:58.945Z,20.40
2019-04-07T13:32:06.189Z,20.43
2019-04-07T13:35:04.377Z,20.00
2019-04-07T13:38:12.158Z,19.63
2019-04-07T13:41:37.227Z,19.83
2019-04-07T13:44:27.184Z,19.00
2019-04-07T13:47:44.844Z,19.77
2019-04-07T13:50:52.533Z,18.80
2019-04-07T13:53:49.283Z,17.70
2019-04-07T13:57:00.342Z,16.37
2019-04-07T14:00:07.275Z,16.35
2019-04-07T14:03:14.624Z,16.87
2019-04-07T14:06:22.233Z,16.10
2019-04-07T14:09:32.331Z,13.78
2019-04-07T14:12:44.414Z,13.05
2019-04-07T14:16:04.274Z,12.13
2019-04-07T14:19:07.708Z,11.68
2019-04-07T14:22:15.526Z,10.95
2019-04-07T14:25:23.458Z,12.13
2019-04-07T14:28:24.490Z,11.08
2019-04-07T14:31:31.391Z,10.20
2019-04-07T14:34:42.840Z,10.80
2019-04-07T14:37:44.345Z,10.90
2019-04-07T14:40:55.296Z,11.90
2019-04-07T14:44:06.974Z,11.40
2019-04-07T14:47:06.503Z,11.40
2019-04-07T14:50:26.536Z,11.97
2019-04-07T14:53:30.273Z,11.25
2019-04-07T14:56:28.491Z,11.03
2019-04-07T14:59:36.556Z,10.90
2019-04-07T15:02:25.219Z,10.20
2019-04-07T15:05:21.822Z,11.12
2019-04-07T15:08:30.324Z,10.38
2019-04-07T15:11:26.985Z,10.40
2019-04-07T15:14:15.608Z,11.67
2019-04-07T15:17:04.694Z,10.30
2019-04-07T15:19:54.090Z,10.60
2019-04-07T15:22:45.907Z,11.37
2019-04-07T15:25:33.082Z,11.00
2019-04-07T15:28:22.575Z,11.88
2019-04-07T15:31:11.737Z,12.15
2019-04-07T15:34:00.931Z,12.60
2019-04-07T15:36:52.444Z,12.35
2019-04-07T15:39:41.658Z,11.37
2019-04-07T15:42:40.349Z,12.40
2019-04-07T15:45:21.641Z,12.05
2019-04-07T15:48:10.719Z,13.20
2019-04-07T15:51:04.621Z,13.10
2019-04-07T15:53:53.155Z,13.10
2019-04-07T15:56:42.366Z,12.78
2019-04-07T15:59:31.440Z,12.37
2019-04-07T16:02:19.982Z,12.20
2019-04-07T16:05:10.488Z,11.30
2019-04-07T16:07:59.632Z,13.25
2019-04-07T16:10:52.072Z,12.30
2019-04-07T16:13:40.971Z,12.58
2019-04-07T16:16:30.760Z,12.93
2019-04-07T16:19:28.689Z,13.95
2019-04-07T16:22:12.497Z,13.08
2019-04-07T16:25:00.684Z,13.20
2019-04-07T16:27:51.111Z,12.30
2019-04-07T16:30:40.683Z,13.53
2019-04-07T16:33:34.699Z,13.40
2019-04-07T16:36:20.014Z,13.40
2019-04-07T16:39:10.094Z,13.62
2019-04-07T16:41:59.110Z,13.85
2019-04-07T16:44:48.374Z,13.38
2019-04-07T16:47:38.242Z,12.45
2019-04-07T16:50:28.212Z,12.33
2019-04-07T16:53:17.236Z,12.50
2019-04-07T16:56:08.069Z,12.25
2019-04-07T16:58:56.911Z,12.85
2019-04-07T17:01:49.781Z,13.20
2019-04-07T17:04:41.025Z,13.53
2019-04-07T17:07:30.639Z,15.67
2019-04-07T17:10:19.740Z,14.90
2019-04-07T17:13:17.880Z,12.90
2019-04-07T17:16:00.626Z,15.00
2019-04-07T17:18:51.099Z,15.45
2019-04-07T17:21:42.722Z,12.37
2019-04-07T17:24:31.308Z,13.03
2019-04-07T17:27:22.966Z,11.93
2019-04-07T17:30:18.219Z,12.50
2019-04-07T17:33:08.149Z,11.90
2019-04-07T17:35:58.121Z,11.37
2019-04-07T17:39:09.509Z,12.68
2019-04-07T17:42:00.392Z,12.17
2019-04-07T17:45:13.192Z,12.63
2019-04-07T17:48:21.344Z,12.50
2019-04-07T17:51:28.709Z,11.60
2019-04-07T17:54:34.976Z,12.68
2019-04-07T17:57:37.094Z,11.45
2019-04-07T18:00:47.541Z,10.85
2019-04-07T18:03:56.382Z,11.25
2019-04-07T18:07:08.191Z,11.68
2019-04-07T18:10:32.371Z,10.73
2019-04-07T18:13:47.171Z,12.60
2019-04-07T18:16:49.394Z,12.40
2019-04-07T18:19:49.122Z,11.80
2019-04-07T18:22:58.064Z,11.75
2019-04-07T18:26:04.187Z,11.10
2019-04-07T18:29:03.865Z,10.98
2019-04-07T18:32:12.079Z,10.60
2019-04-07T18:35:20.553Z,11.10
2019-04-07T18:38:16.150Z,11.70
2019-04-07T18:41:22.873Z,12.40
2019-04-07T18:44:40.382Z,12.90
2019-04-07T18:47:48.253Z,12.60
2019-04-07T18:50:55.754Z,12.98
2019-04-07T18:54:05.171Z,13.60
2019-04-07T18:57:27.210Z,14.25
2019-04-07T19:00:32.432Z,12.80
2019-04-07T19:03:45.329Z,14.10
2019-04-07T19:06:55.916Z,13.00
2019-04-07T19:10:09.511Z,14.35
2019-04-07T19:13:15.869Z,14.80
2019-04-07T19:16:24.654Z,13.93
2019-04-07T19:19:48.480Z,13.98
2019-04-07T19:23:02.834Z,14.33
2019-04-07T19:26:09.812Z,13.88
2019-04-07T19:29:10.013Z,13.90
2019-04-07T19:32:09.945Z,16.17
2019-04-07T19:35:20.659Z,14.47
2019-04-07T19:38:27.397Z,13.40
2019-04-07T19:41:38.266Z,13.68
2019-04-07T19:44:53.336Z,14.50
2019-04-07T19:48:11.479Z,15.30
2019-04-07T19:51:17.803Z,16.07
2019-04-07T19:54:31.862Z,15.80
2019-04-07T19:57:48.568Z,15.90
2019-04-07T20:01:01.223Z,15.90
2019-04-07T20:04:16.400Z,15.30
2019-04-07T20:07:14.625Z,14.63
2019-04-07T20:10:23.749Z,14.70
2019-04-07T20:13:41.008Z,13.78
2019-04-07T20:16:36.455Z,13.22
2019-04-07T20:19:53.601Z,13.30
2019-04-07T20:23:02.180Z,13.15
2019-04-07T20:26:23.017Z,13.60
2019-04-07T20:29:23.633Z,13.40
2019-04-07T20:32:26.674Z,13.15
2019-04-07T20:35:20.850Z,12.98
2019-04-07T20:38:42.186Z,14.00
2019-04-07T20:41:46.919Z,13.80
2019-04-07T20:45:02.410Z,13.70
2019-04-07T20:48:07.334Z,13.10
2019-04-07T20:51:18.769Z,13.30
2019-04-07T20:54:25.947Z,13.28
2019-04-07T20:57:26.400Z,13.40
2019-04-07T21:00:36.924Z,12.90
2019-04-07T21:03:39.149Z,13.45
2019-04-07T21:06:53.974Z,13.32
2019-04-07T21:10:14.126Z,12.15
2019-04-07T21:13:19.313Z,12.10
2019-04-07T21:16:43.074Z,12.58
2019-04-07T21:19:54.333Z,12.37
2019-04-07T21:23:00.667Z,11.73
2019-04-07T21:25:57.180Z,12.55
2019-04-07T21:29:09.032Z,12.37
2019-04-07T21:32:18.902Z,12.93
2019-04-07T21:35:39.500Z,12.58
2019-04-07T21:38:46.376Z,13.10
2019-04-07T21:41:54.171Z,12.30
2019-04-07T21:45:11.752Z,12.23
2019-04-07T21:48:22.465Z,13.30
2019-04-07T21:51:46.013Z,12.35
2019-04-07T21:54:56.453Z,12.80
2019-04-07T21:58:01.264Z,12.20
2019-04-07T22:00:55.408Z,12.07
2019-04-07T22:04:03.739Z,13.35
2019-04-07T22:07:24.996Z,11.80
2019-04-07T22:10:18.723Z,11.60
2019-04-07T22:13:06.736Z,12.50
2019-04-07T22:15:59.333Z,11.35
2019-04-07T22:18:47.048Z,12.55
2019-04-07T22:21:36.243Z,13.10
2019-04-07T22:24:26.323Z,12.63
2019-04-07T22:27:17.571Z,12.40
2019-04-07T22:30:09.141Z,12.65
2019-04-07T22:32:57.387Z,12.50
2019-04-07T22:35:46.225Z,12.80
2019-04-07T22:38:34.594Z,12.55
2019-04-07T22:41:24.963Z,12.47
2019-04-07T22:44:13.782Z,11.90
2019-04-07T22:47:02.929Z,11.77
2019-04-07T22:49:52.683Z,11.45
2019-04-07T22:52:42.046Z,11.45
2019-04-07T22:55:31.218Z,11.70
2019-04-07T22:58:20.302Z,11.40
2019-04-07T23:01:09.176Z,11.12
2019-04-07T23:03:58.122Z,10.95
2019-04-07T23:06:47.904Z,11.53
2019-04-07T23:09:37.050Z,10.60
2019-04-07T23:12:26.571Z,10.25
2019-04-07T23:15:16.587Z,11.33
2019-04-07T23:18:05.438Z,10.32
2019-04-07T23:20:54.234Z,10.70
2019-04-07T23:23:42.614Z,12.18
2019-04-07T23:26:32.044Z,11.70
2019-04-07T23:29:21.865Z,11.20
2019-04-07T23:32:11.429Z,10.57
2019-04-07T23:35:00.730Z,10.75
2019-04-07T23:37:49.826Z,9.70
2019-04-07T23:40:38.552Z,10.50
2019-04-07T23:43:27.568Z,10.60
2019-04-07T23:46:23.155Z,11.28
2019-04-07T23:49:06.503Z,11.60
2019-04-07T23:51:55.407Z,10.53
2019-04-07T23:54:43.991Z,11.15
2019-04-07T23:57:33.069Z,11.90
